createdAt,value
2019-06-20T00:00:28.809Z,9.73
2019-06-20T00:03:00.278Z,9.57
2019-06-20T00:05:28.964Z,10.57
2019-06-20T00:07:58.700Z,11.00
2019-06-20T00:10:27.566Z,10.55
2019-06-20T00:13:00.587Z,10.55
2019-06-20T00:15:26.783Z,15.83
2019-06-20T00:17:55.357Z,17.35
2019-06-20T00:20:23.769Z,18.87
2019-06-20T00:22:52.199Z,18.12
2019-06-20T00:25:20.537Z,16.48
2019-06-20T00:27:48.682Z,14.60
2019-06-20T00:30:17.265Z,13.78
2019-06-20T00:32:46.055Z,13.90
2019-06-20T00:35:14.455Z,13.60
2019-06-20T00:37:43.392Z,12.60
2019-06-20T00:40:12.242Z,11.80
2019-06-20T00:42:41.028Z,11.75
2019-06-20T00:45:10.002Z,12.15
2019-06-20T00:47:38.607Z,13.23
2019-06-20T00:50:07.301Z,11.57
2019-06-20T00:52:35.874Z,11.93
2019-06-20T00:55:04.726Z,11.73
2019-06-20T00:57:33.123Z,11.40
2019-06-20T01:00:01.610Z,11.55
2019-06-20T01:02:30.467Z,11.35
2019-06-20T01:04:59.279Z,11.50
2019-06-20T01:07:28.149Z,12.37
2019-06-20T01:09:56.711Z,11.88
2019-06-20T01:12:25.033Z,12.65
2019-06-20T01:14:53.273Z,12.23
2019-06-20T01:17:21.703Z,11.90
2019-06-20T01:19:50.468Z,11.20
2019-06-20T01:22:19.410Z,12.25
2019-06-20T01:24:47.709Z,11.40
2019-06-20T01:27:16.124Z,11.68
2019-06-20T01:29:44.467Z,12.40
2019-06-20T01:32:12.906Z,12.68
2019-06-20T01:34:41.227Z,12.30
2019-06-20T01:37:10.869Z,12.10
2019-06-20T01:39:39.302Z,12.82
2019-06-20T01:42:09.096Z,14.65
2019-06-20T01:44:37.785Z,12.73
2019-06-20T01:47:07.102Z,12.90
2019-06-20T01:49:35.553Z,12.58
2019-06-20T01:52:04.081Z,12.30
2019-06-20T01:54:32.846Z,14.38
2019-06-20T01:57:01.681Z,13.03
2019-06-20T01:59:30.281Z,12.85
2019-06-20T02:01:58.666Z,12.70
2019-06-20T02:04:27.967Z,12.85
2019-06-20T02:06:56.626Z,12.13
2019-06-20T02:09:26.386Z,12.33
2019-06-20T02:11:55.027Z,12.13
2019-06-20T02:14:23.599Z,13.60
2019-06-20T02:16:52.081Z,12.63
2019-06-20T02:19:21.085Z,11.90
2019-06-20T02:21:49.927Z,12.30
2019-06-20T02:24:18.606Z,11.67
2019-06-20T02:26:47.046Z,12.45
2019-06-20T02:29:15.787Z,11.93
2019-06-20T02:31:44.556Z,13.00
2019-06-20T02:34:13.208Z,13.53
2019-06-20T02:36:41.935Z,12.88
2019-06-20T02:39:10.712Z,11.97
2019-06-20T02:41:39.325Z,12.15
2019-06-20T02:44:24.707Z,12.90
2019-06-20T02:46:38.782Z,12.73
2019-06-20T02:49:07.421Z,13.85
2019-06-20T02:51:36.375Z,13.05
2019-06-20T02:54:04.722Z,14.68
2019-06-20T02:56:33.249Z,13.53
2019-06-20T02:59:02.054Z,13.58
2019-06-20T03:01:30.546Z,13.70
2019-06-20T03:03:59.234Z,13.75
2019-06-20T03:06:28.269Z,13.57
2019-06-20T03:08:57.498Z,12.75
2019-06-20T03:11:25.834Z,13.10
2019-06-20T03:13:54.229Z,12.63
2019-06-20T03:16:22.652Z,12.58
2019-06-20T03:18:51.703Z,13.43
2019-06-20T03:21:20.637Z,13.35
2019-06-20T03:23:49.629Z,12.80
2019-06-20T03:26:18.378Z,12.13
2019-06-20T03:28:47.170Z,12.03
2019-06-20T03:31:15.681Z,11.53
2019-06-20T03:33:44.060Z,12.35
2019-06-20T03:36:12.453Z,14.05
2019-06-20T03:38:41.238Z,12.75
2019-06-20T03:41:10.187Z,13.70
2019-06-20T03:43:39.118Z,12.10
2019-06-20T03:46:07.599Z,11.55
2019-06-20T03:48:36.169Z,12.00
2019-06-20T03:51:04.587Z,11.43
2019-06-20T03:53:33.773Z,12.37
2019-06-20T03:56:02.361Z,13.47
2019-06-20T03:58:31.291Z,15.13
2019-06-20T04:01:00.081Z,14.43
2019-06-20T04:03:28.969Z,16.45
2019-06-20T04:05:57.797Z,14.83
2019-06-20T04:08:26.956Z,15.73
2019-06-20T04:10:55.550Z,14.55
2019-06-20T04:13:23.982Z,15.30
2019-06-20T04:15:52.338Z,14.27
2019-06-20T04:18:20.639Z,13.25
2019-06-20T04:20:49.465Z,14.05
2019-06-20T04:23:18.765Z,13.70
2019-06-20T04:25:47.291Z,12.90
2019-06-20T04:28:17.105Z,13.60
2019-06-20T04:30:45.614Z,14.33
2019-06-20T04:33:14.741Z,14.38
2019-06-20T04:35:43.354Z,13.55
2019-06-20T04:38:11.693Z,15.85
2019-06-20T04:40:40.084Z,17.32
2019-06-20T04:43:08.527Z,17.53
2019-06-20T04:46:00.849Z,16.87
2019-06-20T04:48:29.537Z,17.02
2019-06-20T04:50:58.318Z,18.57
2019-06-20T04:53:27.270Z,17.15
2019-06-20T04:55:55.954Z,17.25
2019-06-20T04:58:24.514Z,17.23
2019-06-20T05:00:52.983Z,16.70
2019-06-20T05:03:21.366Z,17.60
2019-06-20T05:05:50.191Z,17.70
2019-06-20T05:08:18.714Z,13.98
2019-06-20T05:10:47.601Z,12.78
2019-06-20T05:13:16.071Z,10.78
2019-06-20T05:15:52.464Z,12.90
2019-06-20T05:18:14.980Z,12.50
2019-06-20T05:20:43.736Z,12.73
2019-06-20T05:23:12.349Z,11.70
2019-06-20T05:25:40.760Z,11.43
2019-06-20T05:28:09.378Z,11.45
2019-06-20T05:30:38.117Z,9.30
2019-06-20T05:33:07.167Z,9.50
2019-06-20T05:35:35.685Z,8.98
2019-06-20T05:38:04.384Z,10.25
2019-06-20T05:40:36.880Z,13.98
2019-06-20T05:43:03.684Z,12.82
2019-06-20T05:45:31.935Z,12.40
2019-06-20T05:48:00.686Z,13.40
2019-06-20T05:50:29.204Z,13.30
2019-06-20T05:52:57.805Z,12.58
2019-06-20T05:55:26.197Z,12.58
2019-06-20T05:57:54.568Z,11.68
2019-06-20T06:00:23.223Z,11.85
2019-06-20T06:02:51.583Z,11.65
2019-06-20T06:05:20.928Z,10.05
2019-06-20T06:07:49.317Z,10.90
2019-06-20T06:10:17.858Z,9.33
2019-06-20T06:12:46.699Z,9.58
2019-06-20T06:15:15.582Z,8.93
2019-06-20T06:17:44.458Z,10.15
2019-06-20T06:20:14.831Z,9.95
2019-06-20T06:22:44.778Z,9.43
2019-06-20T06:25:13.858Z,9.55
2019-06-20T06:27:45.086Z,9.38
2019-06-20T06:30:14.212Z,9.85
2019-06-20T06:32:42.946Z,9.35
2019-06-20T06:35:11.802Z,9.75
2019-06-20T06:37:44.493Z,9.88
2019-06-20T06:40:14.715Z,9.88
2019-06-20T06:42:43.584Z,9.33
2019-06-20T06:45:12.686Z,10.15
2019-06-20T06:47:41.599Z,10.40
2019-06-20T06:50:10.581Z,9.90
2019-06-20T06:52:39.136Z,10.38
2019-06-20T06:55:10.088Z,9.08
2019-06-20T06:57:38.670Z,10.05
2019-06-20T07:00:08.730Z,9.00
2019-06-20T07:02:37.238Z,9.68
2019-06-20T07:05:06.114Z,10.48
2019-06-20T07:07:35.053Z,9.65
2019-06-20T07:10:04.153Z,9.68
2019-06-20T07:12:32.637Z,9.65
2019-06-20T07:15:01.033Z,9.30
2019-06-20T07:17:29.798Z,9.13
2019-06-20T07:19:58.789Z,8.30
2019-06-20T07:22:27.399Z,8.63
2019-06-20T07:24:55.872Z,9.40
2019-06-20T07:27:24.508Z,10.45
2019-06-20T07:29:53.237Z,9.78
2019-06-20T07:32:21.864Z,8.63
2019-06-20T07:34:50.440Z,8.80
2019-06-20T07:37:20.210Z,8.25
2019-06-20T07:39:49.210Z,9.20
2019-06-20T07:42:18.059Z,8.58
2019-06-20T07:44:46.577Z,7.72
2019-06-20T07:47:17.991Z,8.98
2019-06-20T07:49:45.418Z,9.65
2019-06-20T07:52:14.029Z,9.25
2019-06-20T07:54:42.814Z,9.58
2019-06-20T07:57:11.247Z,10.88
2019-06-20T07:59:40.228Z,8.78
2019-06-20T08:02:08.822Z,8.43
2019-06-20T08:04:37.096Z,8.20
2019-06-20T08:07:05.656Z,9.15
2019-06-20T08:09:44.889Z,9.13
2019-06-20T08:12:04.903Z,8.53
2019-06-20T08:14:33.492Z,7.92
2019-06-20T08:17:02.120Z,8.58
2019-06-20T08:19:30.837Z,7.72
2019-06-20T08:21:59.612Z,8.95
2019-06-20T08:24:28.170Z,8.75
2019-06-20T08:26:58.414Z,8.75
2019-06-20T08:29:27.253Z,8.58
2019-06-20T08:31:57.973Z,11.50
2019-06-20T08:34:26.746Z,9.55
2019-06-20T08:36:57.698Z,9.70
2019-06-20T08:39:29.377Z,9.63
2019-06-20T08:41:59.179Z,10.10
2019-06-20T08:44:29.478Z,9.13
2019-06-20T08:46:59.267Z,10.08
2019-06-20T08:49:28.544Z,8.55
2019-06-20T08:51:57.435Z,8.90
2019-06-20T08:54:26.055Z,9.00
2019-06-20T08:56:56.105Z,7.83
2019-06-20T08:59:25.500Z,8.25
2019-06-20T09:01:56.510Z,7.37
2019-06-20T09:04:24.750Z,8.58
2019-06-20T09:06:55.250Z,7.42
2019-06-20T09:09:23.653Z,7.75
2019-06-20T09:11:52.096Z,7.60
2019-06-20T09:14:20.693Z,7.75
2019-06-20T09:16:49.187Z,7.62
2019-06-20T09:19:18.455Z,7.00
2019-06-20T09:21:47.129Z,7.67
2019-06-20T09:24:15.757Z,7.80
2019-06-20T09:26:44.210Z,7.55
2019-06-20T09:29:13.077Z,7.75
2019-06-20T09:31:41.876Z,8.40
2019-06-20T09:34:10.642Z,7.10
2019-06-20T09:36:39.809Z,7.72
2019-06-20T09:39:09.424Z,8.48
2019-06-20T09:41:38.341Z,7.80
2019-06-20T09:44:06.785Z,7.80
2019-06-20T09:46:35.178Z,8.18
2019-06-20T09:49:03.914Z,7.83
2019-06-20T09:51:32.907Z,8.28
2019-06-20T09:54:01.564Z,7.83
2019-06-20T09:56:30.301Z,7.53
2019-06-20T09:58:59.017Z,7.42
2019-06-20T10:01:27.626Z,6.50
2019-06-20T10:03:56.784Z,7.08
2019-06-20T10:06:26.574Z,7.15
2019-06-20T10:08:56.543Z,6.87
2019-06-20T10:11:25.473Z,6.60
2019-06-20T10:13:54.349Z,6.20
2019-06-20T10:16:23.713Z,7.72
2019-06-20T10:18:52.306Z,6.90
2019-06-20T10:21:21.051Z,6.97
2019-06-20T10:23:49.695Z,6.40
2019-06-20T10:26:18.121Z,6.22
2019-06-20T10:28:48.116Z,6.95
2019-06-20T10:31:17.885Z,6.17
2019-06-20T10:33:46.860Z,6.58
2019-06-20T10:36:15.651Z,6.62
2019-06-20T10:38:45.332Z,6.70
2019-06-20T10:41:14.573Z,6.92
2019-06-20T10:43:42.992Z,6.17
2019-06-20T10:46:12.527Z,7.55
2019-06-20T10:48:42.529Z,6.22
2019-06-20T10:51:29.636Z,6.55
2019-06-20T10:53:58.617Z,5.72
2019-06-20T10:56:27.316Z,5.95
2019-06-20T10:58:56.332Z,5.87
2019-06-20T11:01:24.990Z,5.50
2019-06-20T11:03:53.722Z,5.80
2019-06-20T11:06:22.351Z,5.35
2019-06-20T11:08:51.052Z,4.83
2019-06-20T11:11:19.445Z,5.12
2019-06-20T11:13:48.604Z,5.15
2019-06-20T11:16:19.352Z,5.22
2019-06-20T11:18:48.800Z,4.40
2019-06-20T11:21:18.786Z,5.20
2019-06-20T11:23:48.424Z,4.72
2019-06-20T11:26:17.033Z,5.25
2019-06-20T11:28:45.799Z,4.90
2019-06-20T11:31:15.067Z,4.87
2019-06-20T11:33:44.160Z,4.53
2019-06-20T11:36:13.373Z,4.85
2019-06-20T11:38:42.547Z,4.45
2019-06-20T11:41:11.657Z,4.85
2019-06-20T11:43:40.310Z,5.05
2019-06-20T11:46:09.035Z,5.37
2019-06-20T11:48:38.448Z,5.03
2019-06-20T11:51:06.984Z,4.90
2019-06-20T11:53:36.464Z,4.30
2019-06-20T11:56:05.612Z,4.37
2019-06-20T11:58:34.221Z,5.22
2019-06-20T12:01:04.320Z,5.17
2019-06-20T12:03:33.096Z,4.33
2019-06-20T12:06:01.664Z,4.00
2019-06-20T12:08:30.577Z,4.42
2019-06-20T12:11:00.600Z,4.22
2019-06-20T12:13:30.433Z,3.52
2019-06-20T12:15:59.516Z,4.60
2019-06-20T12:18:27.976Z,4.67
2019-06-20T12:20:58.105Z,4.30
2019-06-20T12:23:26.699Z,4.78
2019-06-20T12:25:58.928Z,4.20
2019-06-20T12:28:27.836Z,4.65
2019-06-20T12:30:56.366Z,4.50
2019-06-20T12:33:26.303Z,3.77
2019-06-20T12:35:57.806Z,4.50
2019-06-20T12:38:26.205Z,3.50
2019-06-20T12:40:54.825Z,3.95
2019-06-20T12:43:27.923Z,3.85
2019-06-20T12:45:57.179Z,4.25
2019-06-20T12:48:28.772Z,4.22
2019-06-20T12:50:57.069Z,3.52
2019-06-20T12:53:25.254Z,4.25
2019-06-20T12:55:53.677Z,4.40
2019-06-20T12:58:25.496Z,3.98
2019-06-20T13:00:53.746Z,4.47
2019-06-20T13:03:23.089Z,4.15
2019-06-20T13:05:53.519Z,4.20
2019-06-20T13:08:21.988Z,4.40
2019-06-20T13:10:51.637Z,4.15
2019-06-20T13:13:20.014Z,4.83
2019-06-20T13:15:52.143Z,3.65
2019-06-20T13:18:21.455Z,4.50
2019-06-20T13:20:50.384Z,4.03
2019-06-20T13:23:18.812Z,4.40
2019-06-20T13:25:48.758Z,4.30
2019-06-20T13:28:17.347Z,4.03
2019-06-20T13:30:49.925Z,4.03
2019-06-20T13:33:16.689Z,3.95
2019-06-20T13:35:45.377Z,4.55
2019-06-20T13:38:13.999Z,4.35
2019-06-20T13:40:43.095Z,3.75
2019-06-20T13:43:11.983Z,4.03
2019-06-20T13:45:41.202Z,4.10
2019-06-20T13:48:10.908Z,3.85
2019-06-20T13:50:40.419Z,3.87
2019-06-20T13:53:10.093Z,4.28
2019-06-20T13:55:39.466Z,3.35
2019-06-20T13:58:09.325Z,3.98
2019-06-20T14:00:38.026Z,4.67
2019-06-20T14:03:07.017Z,4.15
2019-06-20T14:05:35.645Z,3.80
2019-06-20T14:08:04.032Z,3.65
2019-06-20T14:10:33.366Z,3.70
2019-06-20T14:13:15.556Z,4.08
2019-06-20T14:15:34.124Z,4.10
2019-06-20T14:18:02.822Z,4.58
2019-06-20T14:20:31.446Z,3.90
2019-06-20T14:22:59.790Z,4.30
2019-06-20T14:25:28.342Z,4.17
2019-06-20T14:27:56.856Z,4.20
2019-06-20T14:30:25.469Z,4.35
2019-06-20T14:32:55.610Z,3.80
2019-06-20T14:35:24.473Z,3.90
2019-06-20T14:37:53.343Z,4.15
2019-06-20T14:40:21.864Z,4.15
2019-06-20T14:42:50.526Z,3.80
2019-06-20T14:45:20.347Z,4.30
2019-06-20T14:47:49.105Z,4.53
2019-06-20T14:50:17.540Z,4.30
2019-06-20T14:52:46.639Z,4.08
2019-06-20T14:55:16.472Z,4.15
2019-06-20T14:57:46.462Z,4.25
2019-06-20T15:00:15.801Z,4.30
2019-06-20T15:02:45.815Z,4.62
2019-06-20T15:05:15.393Z,4.33
2019-06-20T15:07:46.729Z,4.58
2019-06-20T15:10:15.188Z,4.30
2019-06-20T15:12:45.742Z,5.03
2019-06-20T15:15:13.948Z,4.75
2019-06-20T15:17:42.630Z,5.42
2019-06-20T15:20:13.004Z,4.67
2019-06-20T15:22:42.849Z,4.40
2019-06-20T15:25:12.336Z,4.17
2019-06-20T15:27:40.757Z,4.45
2019-06-20T15:30:10.023Z,4.70
2019-06-20T15:32:53.557Z,4.80
2019-06-20T15:35:09.590Z,4.80
2019-06-20T15:37:38.226Z,4.72
2019-06-20T15:40:06.992Z,4.87
2019-06-20T15:42:36.874Z,4.90
2019-06-20T15:45:05.759Z,4.90
2019-06-20T15:47:34.331Z,5.20
2019-06-20T15:50:03.103Z,5.60
2019-06-20T15:52:32.062Z,5.62
2019-06-20T15:55:00.634Z,5.55
2019-06-20T15:57:29.225Z,5.92
2019-06-20T15:59:57.901Z,5.40
2019-06-20T16:02:26.633Z,5.58
2019-06-20T16:04:57.156Z,6.17
2019-06-20T16:07:25.731Z,5.67
2019-06-20T16:09:54.324Z,6.22
2019-06-20T16:12:23.257Z,5.83
2019-06-20T16:14:51.945Z,6.30
2019-06-20T16:17:20.894Z,5.65
2019-06-20T16:22:45.043Z,6.12
2019-06-20T16:25:13.605Z,5.85
2019-06-20T16:27:42.045Z,6.10
2019-06-20T16:30:10.792Z,5.85
2019-06-20T16:32:39.454Z,6.03
2019-06-20T16:35:08.273Z,6.15
2019-06-20T16:37:36.500Z,5.65
2019-06-20T16:40:05.251Z,5.42
2019-06-20T16:42:34.005Z,6.65
2019-06-20T16:45:02.874Z,6.58
2019-06-20T16:47:36.733Z,6.20
2019-06-20T16:50:06.699Z,6.72
2019-06-20T16:52:34.976Z,6.70
2019-06-20T16:55:04.504Z,6.58
2019-06-20T16:57:36.063Z,5.95
2019-06-20T17:02:55.987Z,6.90
2019-06-20T17:05:25.429Z,6.12
2019-06-20T17:07:54.222Z,6.80
2019-06-20T17:10:23.247Z,6.47
2019-06-20T17:12:51.710Z,6.22
2019-06-20T17:15:20.629Z,6.05
2019-06-20T17:17:53.196Z,6.58
2019-06-20T17:20:22.291Z,6.67
2019-06-20T17:22:50.922Z,6.40
2019-06-20T17:25:19.971Z,6.55
2019-06-20T17:27:48.612Z,5.97
2019-06-20T17:30:17.648Z,6.33
2019-06-20T17:32:46.088Z,6.35
2019-06-20T17:35:16.187Z,5.40
2019-06-20T17:37:45.186Z,5.60
2019-06-20T17:40:14.396Z,5.95
2019-06-20T17:42:43.240Z,5.72
2019-06-20T17:45:12.404Z,5.97
2019-06-20T17:47:41.073Z,5.40
2019-06-20T17:50:10.373Z,5.55
2019-06-20T17:52:39.105Z,5.92
2019-06-20T17:55:07.700Z,6.12
2019-06-20T17:57:36.831Z,7.15
2019-06-20T18:00:08.264Z,6.00
2019-06-20T18:02:38.604Z,6.95
2019-06-20T18:05:07.813Z,7.00
2019-06-20T18:07:37.321Z,7.28
2019-06-20T18:10:07.197Z,7.08
2019-06-20T18:12:35.866Z,6.85
2019-06-20T18:15:04.979Z,6.80
2019-06-20T18:17:33.742Z,7.17
2019-06-20T18:20:02.635Z,7.00
2019-06-20T18:22:31.084Z,8.53
2019-06-20T18:24:59.606Z,9.10
2019-06-20T18:27:28.179Z,8.10
2019-06-20T18:29:56.891Z,7.53
2019-06-20T18:32:25.650Z,8.03
2019-06-20T18:35:01.970Z,8.20
2019-06-20T18:37:31.314Z,8.00
2019-06-20T18:40:00.309Z,9.50
2019-06-20T18:42:33.814Z,9.03
2019-06-20T18:45:03.808Z,34.10
2019-06-20T18:47:32.018Z,8.48
2019-06-20T18:50:03.680Z,8.23
2019-06-20T18:52:50.949Z,8.63
2019-06-20T18:55:06.977Z,8.78
2019-06-20T18:57:38.919Z,9.20
2019-06-20T19:00:08.344Z,8.20
2019-06-20T19:02:37.060Z,8.03
2019-06-20T19:05:05.705Z,9.15
2019-06-20T19:07:34.284Z,8.80
2019-06-20T19:10:02.742Z,8.60
2019-06-20T19:12:31.257Z,8.70
2019-06-20T19:14:59.491Z,8.60
2019-06-20T19:17:27.773Z,9.63
2019-06-20T19:19:55.965Z,9.00
2019-06-20T19:22:25.127Z,9.48
2019-06-20T19:24:53.277Z,9.43
2019-06-20T19:27:21.613Z,9.53
2019-06-20T19:29:49.952Z,9.83
2019-06-20T19:32:19.404Z,9.18
2019-06-20T19:35:00.946Z,9.33
2019-06-20T19:37:19.043Z,9.53
2019-06-20T19:39:47.694Z,9.23
2019-06-20T19:42:16.111Z,10.13
2019-06-20T19:44:45.127Z,10.20
2019-06-20T19:47:13.756Z,10.28
2019-06-20T19:49:42.382Z,9.50
2019-06-20T19:52:10.794Z,9.58
2019-06-20T19:54:39.442Z,9.90
2019-06-20T19:57:12.065Z,9.65
2019-06-20T19:59:40.670Z,9.80
2019-06-20T20:02:09.928Z,9.85
2019-06-20T20:04:41.000Z,9.18
2019-06-20T20:07:11.917Z,9.75
2019-06-20T20:09:41.033Z,9.60
2019-06-20T20:12:10.058Z,9.35
2019-06-20T20:14:38.873Z,9.20
2019-06-20T20:17:07.800Z,9.78
2019-06-20T20:19:36.308Z,9.55
2019-06-20T20:22:06.660Z,9.45
2019-06-20T20:24:35.122Z,9.70
2019-06-20T20:27:07.703Z,9.68
2019-06-20T20:29:36.481Z,9.88
2019-06-20T20:32:04.832Z,9.85
2019-06-20T20:34:33.173Z,9.95
2019-06-20T20:37:01.684Z,10.00
2019-06-20T20:39:30.530Z,10.63
2019-06-20T20:41:59.102Z,10.10
2019-06-20T20:44:28.096Z,10.40
2019-06-20T20:46:56.805Z,10.35
2019-06-20T20:49:25.436Z,10.13
2019-06-20T20:51:54.163Z,11.45
2019-06-20T20:54:23.941Z,12.00
2019-06-20T20:56:54.236Z,11.55
2019-06-20T20:59:23.188Z,10.98
2019-06-20T21:01:52.049Z,10.72
2019-06-20T21:04:20.834Z,11.78
2019-06-20T21:06:49.297Z,10.48
2019-06-20T21:09:18.813Z,12.28
2019-06-20T21:11:47.848Z,12.60
2019-06-20T21:14:16.463Z,11.75
2019-06-20T21:16:45.189Z,11.15
2019-06-20T21:19:13.600Z,12.23
2019-06-20T21:21:42.184Z,11.28
2019-06-20T21:24:11.228Z,12.15
2019-06-20T21:26:49.549Z,11.45
2019-06-20T21:29:11.730Z,12.37
2019-06-20T21:31:41.980Z,12.28
2019-06-20T21:34:10.493Z,11.93
2019-06-20T21:36:38.813Z,11.60
2019-06-20T21:39:08.197Z,11.48
2019-06-20T21:41:36.814Z,12.15
2019-06-20T21:44:05.503Z,10.65
2019-06-20T21:46:34.369Z,10.48
2019-06-20T21:49:03.009Z,11.00
2019-06-20T21:51:31.850Z,11.55
2019-06-20T21:54:00.405Z,11.83
2019-06-20T21:56:28.813Z,11.65
2019-06-20T21:58:57.434Z,11.50
2019-06-20T22:01:26.327Z,10.40
2019-06-20T22:03:55.170Z,10.32
2019-06-20T22:06:24.301Z,9.93
2019-06-20T22:08:52.791Z,10.50
2019-06-20T22:11:21.183Z,11.78
2019-06-20T22:13:49.915Z,10.58
2019-06-20T22:16:18.352Z,10.55
2019-06-20T22:18:46.981Z,9.60
2019-06-20T22:21:15.973Z,10.30
2019-06-20T22:23:44.732Z,9.85
2019-06-20T22:26:13.221Z,10.13
2019-06-20T22:28:42.033Z,9.83
2019-06-20T22:31:10.572Z,8.83
2019-06-20T22:33:39.363Z,9.83
2019-06-20T22:36:08.327Z,9.38
2019-06-20T22:38:36.943Z,9.18
2019-06-20T22:41:05.468Z,9.63
2019-06-20T22:43:34.103Z,10.03
2019-06-20T22:46:02.695Z,9.40
2019-06-20T22:48:31.256Z,10.10
2019-06-20T22:50:59.925Z,10.58
2019-06-20T22:53:28.740Z,10.72
2019-06-20T22:55:57.442Z,10.00
2019-06-20T22:58:26.157Z,10.88
2019-06-20T23:00:54.895Z,11.70
2019-06-20T23:03:23.239Z,12.18
2019-06-20T23:05:51.863Z,11.78
2019-06-20T23:08:20.648Z,11.43
2019-06-20T23:10:49.417Z,10.03
2019-06-20T23:13:18.127Z,10.35
2019-06-20T23:15:46.744Z,10.30
2019-06-20T23:18:15.497Z,10.30
2019-06-20T23:21:03.370Z,9.93
2019-06-20T23:23:14.709Z,10.75
2019-06-20T23:25:46.137Z,10.63
2019-06-20T23:28:15.105Z,9.88
2019-06-20T23:30:44.661Z,9.10
2019-06-20T23:33:13.401Z,10.65
2019-06-20T23:35:42.001Z,9.10
2019-06-20T23:38:11.323Z,8.48
2019-06-20T23:40:40.081Z,8.50
2019-06-20T23:43:09.009Z,8.25
2019-06-20T23:45:37.591Z,7.95
2019-06-20T23:48:06.062Z,7.55
2019-06-20T23:50:34.766Z,7.72
2019-06-20T23:53:12.449Z,7.28
2019-06-20T23:55:41.134Z,6.78
2019-06-20T23:58:09.785Z,7.08
